sensor_id;sensor_type;location;lat;lon;timestamp;P1;durP1;ratioP1;P2;durP2;ratioP2
44139;SDS011;29803;51.048;4.686;2023-03-13T00:00:24;23.85;;;4.38;;
44139;SDS011;29803;51.048;4.686;2023-03-13T00:02:54;25.42;;;4.68;;
44139;SDS011;29803;51.048;4.686;2023-03-13T00:05:24;29.35;;;4.30;;
44139;SDS011;29803;51.048;4.686;2023-03-13T00:07:55;28.27;;;5.13;;
44139;SDS011;29803;51.048;4.686;2023-03-13T00:10:25;16.65;;;3.97;;
44139;SDS011;29803;51.048;4.686;2023-03-13T00:12:56;22.75;;;4.57;;
44139;SDS011;29803;51.048;4.686;2023-03-13T00:15:26;25.30;;;5.07;;
44139;SDS011;29803;51.048;4.686;2023-03-13T00:17:57;23.30;;;3.97;;
44139;SDS011;29803;51.048;4.686;2023-03-13T00:20:28;31.50;;;4.20;;
44139;SDS011;29803;51.048;4.686;2023-03-13T00:22:58;23.92;;;4.05;;
44139;SDS011;29803;51.048;4.686;2023-03-13T00:25:29;30.60;;;5.70;;
44139;SDS011;29803;51.048;4.686;2023-03-13T00:28:00;23.58;;;4.63;;
44139;SDS011;29803;51.048;4.686;2023-03-13T00:30:30;22.60;;;4.13;;
44139;SDS011;29803;51.048;4.686;2023-03-13T00:33:00;20.23;;;3.85;;
44139;SDS011;29803;51.048;4.686;2023-03-13T00:35:31;17.38;;;5.40;;
44139;SDS011;29803;51.048;4.686;2023-03-13T00:38:01;16.30;;;4.50;;
44139;SDS011;29803;51.048;4.686;2023-03-13T00:40:32;25.15;;;4.22;;
44139;SDS011;29803;51.048;4.686;2023-03-13T00:43:02;20.02;;;4.15;;
44139;SDS011;29803;51.048;4.686;2023-03-13T00:45:33;14.70;;;3.22;;
44139;SDS011;29803;51.048;4.686;2023-03-13T00:48:03;19.88;;;3.33;;
44139;SDS011;29803;51.048;4.686;2023-03-13T00:50:34;13.25;;;3.42;;
44139;SDS011;29803;51.048;4.686;2023-03-13T00:53:04;13.50;;;3.95;;
44139;SDS011;29803;51.048;4.686;2023-03-13T00:55:35;16.25;;;3.42;;
44139;SDS011;29803;51.048;4.686;2023-03-13T00:58:05;16.15;;;3.30;;
44139;SDS011;29803;51.048;4.686;2023-03-13T01:00:36;16.77;;;3.72;;
44139;SDS011;29803;51.048;4.686;2023-03-13T01:03:06;11.35;;;3.40;;
44139;SDS011;29803;51.048;4.686;2023-03-13T01:05:36;11.80;;;3.33;;
44139;SDS011;29803;51.048;4.686;2023-03-13T01:08:07;10.15;;;2.92;;
44139;SDS011;29803;51.048;4.686;2023-03-13T01:10:37;17.10;;;3.47;;
44139;SDS011;29803;51.048;4.686;2023-03-13T01:13:08;11.00;;;2.97;;
44139;SDS011;29803;51.048;4.686;2023-03-13T01:15:38;13.68;;;3.20;;
44139;SDS011;29803;51.048;4.686;2023-03-13T01:18:09;9.30;;;3.22;;
44139;SDS011;29803;51.048;4.686;2023-03-13T01:20:39;6.28;;;2.60;;
44139;SDS011;29803;51.048;4.686;2023-03-13T01:23:10;9.77;;;2.80;;
44139;SDS011;29803;51.048;4.686;2023-03-13T01:25:41;8.65;;;2.55;;
44139;SDS011;29803;51.048;4.686;2023-03-13T01:28:11;8.95;;;3.08;;
44139;SDS011;29803;51.048;4.686;2023-03-13T01:30:42;15.00;;;3.38;;
44139;SDS011;29803;51.048;4.686;2023-03-13T01:33:12;12.80;;;3.47;;
44139;SDS011;29803;51.048;4.686;2023-03-13T01:35:43;10.98;;;3.40;;
44139;SDS011;29803;51.048;4.686;2023-03-13T01:38:13;8.90;;;3.53;;
44139;SDS011;29803;51.048;4.686;2023-03-13T01:40:45;11.60;;;3.97;;
44139;SDS011;29803;51.048;4.686;2023-03-13T01:48:56;15.57;;;5.40;;
44139;SDS011;29803;51.048;4.686;2023-03-13T01:51:33;13.15;;;5.38;;
44139;SDS011;29803;51.048;4.686;2023-03-13T01:54:10;14.18;;;6.15;;
44139;SDS011;29803;51.048;4.686;2023-03-13T01:59:36;14.30;;;6.28;;
44139;SDS011;29803;51.048;4.686;2023-03-13T02:02:11;15.50;;;6.40;;
44139;SDS011;29803;51.048;4.686;2023-03-13T02:04:46;16.92;;;7.07;;
44139;SDS011;29803;51.048;4.686;2023-03-13T02:07:21;19.15;;;6.65;;
44139;SDS011;29803;51.048;4.686;2023-03-13T02:09:57;14.63;;;6.07;;
44139;SDS011;29803;51.048;4.686;2023-03-13T02:12:32;13.52;;;6.47;;
44139;SDS011;29803;51.048;4.686;2023-03-13T02:15:05;12.90;;;6.00;;
44139;SDS011;29803;51.048;4.686;2023-03-13T02:17:39;10.15;;;5.80;;
44139;SDS011;29803;51.048;4.686;2023-03-13T02:20:12;16.80;;;5.85;;
44139;SDS011;29803;51.048;4.686;2023-03-13T02:28:16;11.55;;;5.88;;
44139;SDS011;29803;51.048;4.686;2023-03-13T02:30:50;10.15;;;4.85;;
44139;SDS011;29803;51.048;4.686;2023-03-13T02:33:26;13.27;;;5.63;;
44139;SDS011;29803;51.048;4.686;2023-03-13T02:35:59;9.75;;;4.93;;
44139;SDS011;29803;51.048;4.686;2023-03-13T02:38:32;8.00;;;4.97;;
44139;SDS011;29803;51.048;4.686;2023-03-13T02:41:06;11.48;;;5.45;;
44139;SDS011;29803;51.048;4.686;2023-03-13T02:43:38;9.35;;;4.35;;
44139;SDS011;29803;51.048;4.686;2023-03-13T02:46:10;10.20;;;5.00;;
44139;SDS011;29803;51.048;4.686;2023-03-13T02:48:44;10.32;;;5.53;;
44139;SDS011;29803;51.048;4.686;2023-03-13T02:51:19;14.93;;;5.90;;
44139;SDS011;29803;51.048;4.686;2023-03-13T02:53:51;9.03;;;5.33;;
44139;SDS011;29803;51.048;4.686;2023-03-13T02:56:26;14.93;;;5.72;;
44139;SDS011;29803;51.048;4.686;2023-03-13T02:58:58;13.75;;;5.10;;
44139;SDS011;29803;51.048;4.686;2023-03-13T03:01:28;13.23;;;5.22;;
44139;SDS011;29803;51.048;4.686;2023-03-13T03:03:59;9.95;;;5.25;;
44139;SDS011;29803;51.048;4.686;2023-03-13T03:06:29;12.00;;;4.97;;
44139;SDS011;29803;51.048;4.686;2023-03-13T03:09:00;8.30;;;4.63;;
44139;SDS011;29803;51.048;4.686;2023-03-13T03:11:31;8.82;;;4.10;;
44139;SDS011;29803;51.048;4.686;2023-03-13T03:14:02;10.30;;;4.18;;
44139;SDS011;29803;51.048;4.686;2023-03-13T03:16:32;11.50;;;4.68;;
44139;SDS011;29803;51.048;4.686;2023-03-13T03:19:03;8.40;;;4.13;;
44139;SDS011;29803;51.048;4.686;2023-03-13T03:21:35;8.27;;;4.28;;
44139;SDS011;29803;51.048;4.686;2023-03-13T03:24:06;9.43;;;4.10;;
44139;SDS011;29803;51.048;4.686;2023-03-13T03:26:37;9.80;;;3.47;;
44139;SDS011;29803;51.048;4.686;2023-03-13T03:29:07;10.30;;;3.90;;
44139;SDS011;29803;51.048;4.686;2023-03-13T03:31:39;8.20;;;3.25;;
44139;SDS011;29803;51.048;4.686;2023-03-13T03:34:10;9.48;;;4.72;;
44139;SDS011;29803;51.048;4.686;2023-03-13T03:36:40;8.90;;;3.97;;
44139;SDS011;29803;51.048;4.686;2023-03-13T03:39:11;9.68;;;3.22;;
44139;SDS011;29803;51.048;4.686;2023-03-13T03:41:42;6.85;;;3.50;;
44139;SDS011;29803;51.048;4.686;2023-03-13T03:44:12;7.30;;;3.30;;
44139;SDS011;29803;51.048;4.686;2023-03-13T03:46:42;8.27;;;3.38;;
44139;SDS011;29803;51.048;4.686;2023-03-13T03:49:13;6.70;;;4.07;;
44139;SDS011;29803;51.048;4.686;2023-03-13T03:51:43;6.57;;;2.97;;
44139;SDS011;29803;51.048;4.686;2023-03-13T03:54:14;6.38;;;3.15;;
44139;SDS011;29803;51.048;4.686;2023-03-13T03:56:44;8.18;;;3.30;;
44139;SDS011;29803;51.048;4.686;2023-03-13T03:59:15;10.38;;;4.65;;
44139;SDS011;29803;51.048;4.686;2023-03-13T04:01:45;5.03;;;2.63;;
44139;SDS011;29803;51.048;4.686;2023-03-13T04:04:16;10.95;;;3.10;;
44139;SDS011;29803;51.048;4.686;2023-03-13T04:06:46;6.72;;;2.90;;
44139;SDS011;29803;51.048;4.686;2023-03-13T04:09:16;5.88;;;2.80;;
44139;SDS011;29803;51.048;4.686;2023-03-13T04:11:47;5.60;;;2.50;;
44139;SDS011;29803;51.048;4.686;2023-03-13T04:14:17;3.90;;;2.60;;
44139;SDS011;29803;51.048;4.686;2023-03-13T04:16:48;10.18;;;3.10;;
44139;SDS011;29803;51.048;4.686;2023-03-13T04:19:18;6.45;;;2.50;;
44139;SDS011;29803;51.048;4.686;2023-03-13T04:21:49;4.32;;;2.60;;
44139;SDS011;29803;51.048;4.686;2023-03-13T04:24:19;8.40;;;2.65;;
44139;SDS011;29803;51.048;4.686;2023-03-13T04:26:50;9.18;;;2.75;;
44139;SDS011;29803;51.048;4.686;2023-03-13T04:29:20;8.88;;;3.00;;
44139;SDS011;29803;51.048;4.686;2023-03-13T04:31:50;7.93;;;3.05;;
44139;SDS011;29803;51.048;4.686;2023-03-13T04:34:21;8.50;;;2.47;;
44139;SDS011;29803;51.048;4.686;2023-03-13T04:36:51;5.57;;;3.05;;
44139;SDS011;29803;51.048;4.686;2023-03-13T04:39:22;5.93;;;2.58;;
44139;SDS011;29803;51.048;4.686;2023-03-13T04:41:54;8.02;;;2.80;;
44139;SDS011;29803;51.048;4.686;2023-03-13T04:44:25;7.65;;;2.70;;
44139;SDS011;29803;51.048;4.686;2023-03-13T04:46:55;7.43;;;2.72;;
44139;SDS011;29803;51.048;4.686;2023-03-13T04:49:26;11.73;;;3.05;;
44139;SDS011;29803;51.048;4.686;2023-03-13T04:51:56;6.20;;;2.85;;
44139;SDS011;29803;51.048;4.686;2023-03-13T04:54:27;6.93;;;2.42;;
44139;SDS011;29803;51.048;4.686;2023-03-13T04:56:57;6.80;;;2.60;;
44139;SDS011;29803;51.048;4.686;2023-03-13T04:59:28;6.28;;;2.50;;
44139;SDS011;29803;51.048;4.686;2023-03-13T05:01:58;4.55;;;3.10;;
44139;SDS011;29803;51.048;4.686;2023-03-13T05:04:29;15.07;;;3.22;;
44139;SDS011;29803;51.048;4.686;2023-03-13T05:06:59;6.22;;;2.63;;
44139;SDS011;29803;51.048;4.686;2023-03-13T05:09:30;10.32;;;2.35;;
44139;SDS011;29803;51.048;4.686;2023-03-13T05:12:00;5.32;;;2.58;;
44139;SDS011;29803;51.048;4.686;2023-03-13T05:14:31;8.07;;;2.78;;
44139;SDS011;29803;51.048;4.686;2023-03-13T05:17:01;8.38;;;2.40;;
44139;SDS011;29803;51.048;4.686;2023-03-13T05:19:32;4.88;;;2.67;;
44139;SDS011;29803;51.048;4.686;2023-03-13T05:22:02;8.48;;;2.60;;
44139;SDS011;29803;51.048;4.686;2023-03-13T05:24:33;9.85;;;2.72;;
44139;SDS011;29803;51.048;4.686;2023-03-13T05:27:03;9.95;;;2.28;;
44139;SDS011;29803;51.048;4.686;2023-03-13T05:29:34;8.35;;;2.80;;
44139;SDS011;29803;51.048;4.686;2023-03-13T05:32:04;11.80;;;2.75;;
44139;SDS011;29803;51.048;4.686;2023-03-13T05:34:35;6.45;;;2.65;;
44139;SDS011;29803;51.048;4.686;2023-03-13T05:37:05;10.50;;;2.60;;
44139;SDS011;29803;51.048;4.686;2023-03-13T05:39:36;11.90;;;2.92;;
44139;SDS011;29803;51.048;4.686;2023-03-13T05:42:06;9.30;;;3.58;;
44139;SDS011;29803;51.048;4.686;2023-03-13T05:44:37;11.18;;;3.15;;
44139;SDS011;29803;51.048;4.686;2023-03-13T05:47:07;8.25;;;2.67;;
44139;SDS011;29803;51.048;4.686;2023-03-13T05:49:38;7.20;;;2.90;;
44139;SDS011;29803;51.048;4.686;2023-03-13T05:52:09;10.05;;;3.55;;
44139;SDS011;29803;51.048;4.686;2023-03-13T05:54:39;7.72;;;2.60;;
44139;SDS011;29803;51.048;4.686;2023-03-13T05:57:10;7.57;;;2.97;;
44139;SDS011;29803;51.048;4.686;2023-03-13T05:59:40;11.68;;;3.05;;
44139;SDS011;29803;51.048;4.686;2023-03-13T06:02:11;7.97;;;2.75;;
44139;SDS011;29803;51.048;4.686;2023-03-13T06:04:41;11.80;;;2.72;;
44139;SDS011;29803;51.048;4.686;2023-03-13T06:07:12;16.50;;;3.38;;
44139;SDS011;29803;51.048;4.686;2023-03-13T06:09:42;11.57;;;2.55;;
44139;SDS011;29803;51.048;4.686;2023-03-13T06:12:13;7.15;;;2.47;;
44139;SDS011;29803;51.048;4.686;2023-03-13T06:14:43;8.82;;;3.08;;
44139;SDS011;29803;51.048;4.686;2023-03-13T06:17:14;11.23;;;2.58;;
44139;SDS011;29803;51.048;4.686;2023-03-13T06:19:45;14.75;;;3.70;;
44139;SDS011;29803;51.048;4.686;2023-03-13T06:22:16;9.02;;;3.05;;
44139;SDS011;29803;51.048;4.686;2023-03-13T06:24:46;9.82;;;2.65;;
44139;SDS011;29803;51.048;4.686;2023-03-13T06:27:18;11.93;;;2.90;;
44139;SDS011;29803;51.048;4.686;2023-03-13T06:29:49;16.25;;;3.35;;
44139;SDS011;29803;51.048;4.686;2023-03-13T06:32:19;11.80;;;3.10;;
44139;SDS011;29803;51.048;4.686;2023-03-13T06:34:50;12.77;;;2.70;;
44139;SDS011;29803;51.048;4.686;2023-03-13T06:37:21;10.25;;;3.17;;
44139;SDS011;29803;51.048;4.686;2023-03-13T06:39:51;10.05;;;2.90;;
44139;SDS011;29803;51.048;4.686;2023-03-13T06:42:22;14.77;;;3.28;;
44139;SDS011;29803;51.048;4.686;2023-03-13T06:44:52;17.67;;;3.33;;
44139;SDS011;29803;51.048;4.686;2023-03-13T06:47:23;7.88;;;2.55;;
44139;SDS011;29803;51.048;4.686;2023-03-13T06:49:53;13.05;;;2.80;;
44139;SDS011;29803;51.048;4.686;2023-03-13T06:52:24;13.35;;;3.20;;
44139;SDS011;29803;51.048;4.686;2023-03-13T06:54:54;14.18;;;3.70;;
44139;SDS011;29803;51.048;4.686;2023-03-13T06:57:25;28.30;;;3.92;;
44139;SDS011;29803;51.048;4.686;2023-03-13T06:59:56;14.43;;;3.00;;
44139;SDS011;29803;51.048;4.686;2023-03-13T07:02:26;14.80;;;2.88;;
44139;SDS011;29803;51.048;4.686;2023-03-13T07:04:56;20.08;;;3.65;;
44139;SDS011;29803;51.048;4.686;2023-03-13T07:07:27;14.95;;;3.95;;
44139;SDS011;29803;51.048;4.686;2023-03-13T07:09:59;17.75;;;4.03;;
44139;SDS011;29803;51.048;4.686;2023-03-13T07:12:29;10.75;;;2.75;;
44139;SDS011;29803;51.048;4.686;2023-03-13T07:15:00;8.50;;;3.20;;
44139;SDS011;29803;51.048;4.686;2023-03-13T07:17:30;16.77;;;3.38;;
44139;SDS011;29803;51.048;4.686;2023-03-13T07:20:02;13.07;;;3.00;;
44139;SDS011;29803;51.048;4.686;2023-03-13T07:22:34;14.38;;;3.25;;
44139;SDS011;29803;51.048;4.686;2023-03-13T07:25:05;13.20;;;2.88;;
44139;SDS011;29803;51.048;4.686;2023-03-13T07:27:36;13.93;;;3.13;;
44139;SDS011;29803;51.048;4.686;2023-03-13T07:30:07;14.02;;;3.17;;
44139;SDS011;29803;51.048;4.686;2023-03-13T07:32:38;9.90;;;3.85;;
44139;SDS011;29803;51.048;4.686;2023-03-13T07:35:09;12.32;;;2.72;;
44139;SDS011;29803;51.048;4.686;2023-03-13T07:37:39;8.48;;;3.47;;
44139;SDS011;29803;51.048;4.686;2023-03-13T07:40:10;9.55;;;2.60;;
44139;SDS011;29803;51.048;4.686;2023-03-13T07:42:41;13.75;;;3.70;;
44139;SDS011;29803;51.048;4.686;2023-03-13T07:45:12;10.43;;;2.92;;
44139;SDS011;29803;51.048;4.686;2023-03-13T07:47:42;16.73;;;3.45;;
44139;SDS011;29803;51.048;4.686;2023-03-13T07:50:12;14.00;;;3.40;;
44139;SDS011;29803;51.048;4.686;2023-03-13T07:52:43;12.93;;;3.28;;
44139;SDS011;29803;51.048;4.686;2023-03-13T07:55:13;7.82;;;3.47;;
44139;SDS011;29803;51.048;4.686;2023-03-13T07:57:44;10.98;;;2.65;;
44139;SDS011;29803;51.048;4.686;2023-03-13T08:00:14;11.80;;;3.25;;
44139;SDS011;29803;51.048;4.686;2023-03-13T08:02:47;11.43;;;3.03;;
44139;SDS011;29803;51.048;4.686;2023-03-13T08:05:18;14.18;;;3.88;;
44139;SDS011;29803;51.048;4.686;2023-03-13T08:07:49;11.68;;;3.30;;
44139;SDS011;29803;51.048;4.686;2023-03-13T08:10:19;12.73;;;2.53;;
44139;SDS011;29803;51.048;4.686;2023-03-13T08:12:50;7.13;;;2.53;;
44139;SDS011;29803;51.048;4.686;2023-03-13T08:15:20;9.50;;;2.83;;
44139;SDS011;29803;51.048;4.686;2023-03-13T08:17:54;10.98;;;3.58;;
44139;SDS011;29803;51.048;4.686;2023-03-13T08:20:26;10.48;;;2.60;;
44139;SDS011;29803;51.048;4.686;2023-03-13T08:22:56;12.82;;;4.82;;
44139;SDS011;29803;51.048;4.686;2023-03-13T08:25:27;9.73;;;3.30;;
44139;SDS011;29803;51.048;4.686;2023-03-13T08:27:57;14.57;;;8.07;;
44139;SDS011;29803;51.048;4.686;2023-03-13T08:30:27;8.00;;;3.03;;
44139;SDS011;29803;51.048;4.686;2023-03-13T08:32:58;9.60;;;2.33;;
44139;SDS011;29803;51.048;4.686;2023-03-13T08:35:29;7.88;;;2.72;;
44139;SDS011;29803;51.048;4.686;2023-03-13T08:37:59;7.25;;;2.47;;
44139;SDS011;29803;51.048;4.686;2023-03-13T08:40:30;9.05;;;2.28;;
44139;SDS011;29803;51.048;4.686;2023-03-13T08:43:00;9.75;;;2.47;;
44139;SDS011;29803;51.048;4.686;2023-03-13T08:45:30;5.78;;;2.33;;
44139;SDS011;29803;51.048;4.686;2023-03-13T08:48:01;8.95;;;2.60;;
44139;SDS011;29803;51.048;4.686;2023-03-13T08:50:31;9.80;;;2.72;;
44139;SDS011;29803;51.048;4.686;2023-03-13T08:53:02;6.60;;;3.40;;
44139;SDS011;29803;51.048;4.686;2023-03-13T08:55:32;8.70;;;2.90;;
44139;SDS011;29803;51.048;4.686;2023-03-13T08:58:03;6.68;;;2.78;;
44139;SDS011;29803;51.048;4.686;2023-03-13T09:00:33;4.60;;;2.70;;
44139;SDS011;29803;51.048;4.686;2023-03-13T09:03:04;7.32;;;2.58;;
44139;SDS011;29803;51.048;4.686;2023-03-13T09:05:36;8.40;;;2.60;;
44139;SDS011;29803;51.048;4.686;2023-03-13T09:08:06;7.82;;;2.53;;
44139;SDS011;29803;51.048;4.686;2023-03-13T09:10:37;17.25;;;5.30;;
44139;SDS011;29803;51.048;4.686;2023-03-13T09:13:07;8.15;;;2.75;;
44139;SDS011;29803;51.048;4.686;2023-03-13T09:15:38;7.15;;;2.03;;
44139;SDS011;29803;51.048;4.686;2023-03-13T09:18:08;5.97;;;3.83;;
44139;SDS011;29803;51.048;4.686;2023-03-13T09:20:41;10.00;;;2.58;;
44139;SDS011;29803;51.048;4.686;2023-03-13T09:23:12;6.15;;;1.98;;
44139;SDS011;29803;51.048;4.686;2023-03-13T09:25:43;7.57;;;2.45;;
44139;SDS011;29803;51.048;4.686;2023-03-13T09:28:13;6.57;;;2.30;;
44139;SDS011;29803;51.048;4.686;2023-03-13T09:30:44;4.90;;;2.20;;
44139;SDS011;29803;51.048;4.686;2023-03-13T09:33:16;7.28;;;2.13;;
44139;SDS011;29803;51.048;4.686;2023-03-13T09:35:48;6.45;;;2.53;;
44139;SDS011;29803;51.048;4.686;2023-03-13T09:38:20;6.18;;;2.83;;
44139;SDS011;29803;51.048;4.686;2023-03-13T09:40:51;6.35;;;2.13;;
44139;SDS011;29803;51.048;4.686;2023-03-13T09:43:36;6.72;;;2.08;;
44139;SDS011;29803;51.048;4.686;2023-03-13T09:52:11;5.05;;;1.63;;
44139;SDS011;29803;51.048;4.686;2023-03-13T09:57:55;3.60;;;1.70;;
44139;SDS011;29803;51.048;4.686;2023-03-13T10:00:35;6.88;;;2.15;;
44139;SDS011;29803;51.048;4.686;2023-03-13T10:05:51;8.43;;;1.77;;
44139;SDS011;29803;51.048;4.686;2023-03-13T10:08:25;4.30;;;1.77;;
44139;SDS011;29803;51.048;4.686;2023-03-13T10:11:10;4.15;;;1.73;;
44139;SDS011;29803;51.048;4.686;2023-03-13T10:19:53;4.60;;;1.67;;
44139;SDS011;29803;51.048;4.686;2023-03-13T10:22:28;5.28;;;1.48;;
44139;SDS011;29803;51.048;4.686;2023-03-13T10:25:03;3.58;;;1.50;;
44139;SDS011;29803;51.048;4.686;2023-03-13T10:27:42;6.38;;;1.88;;
44139;SDS011;29803;51.048;4.686;2023-03-13T10:30:19;3.58;;;1.90;;
44139;SDS011;29803;51.048;4.686;2023-03-13T10:33:22;4.72;;;1.52;;
44139;SDS011;29803;51.048;4.686;2023-03-13T10:36:06;4.47;;;1.55;;
44139;SDS011;29803;51.048;4.686;2023-03-13T10:38:52;5.82;;;1.55;;
44139;SDS011;29803;51.048;4.686;2023-03-13T10:43:59;4.85;;;1.75;;
44139;SDS011;29803;51.048;4.686;2023-03-13T10:46:45;7.20;;;1.50;;
44139;SDS011;29803;51.048;4.686;2023-03-13T10:49:20;4.35;;;1.90;;
44139;SDS011;29803;51.048;4.686;2023-03-13T10:51:54;4.63;;;1.63;;
44139;SDS011;29803;51.048;4.686;2023-03-13T10:54:27;9.10;;;1.85;;
44139;SDS011;29803;51.048;4.686;2023-03-13T10:57:20;5.97;;;1.50;;
44139;SDS011;29803;51.048;4.686;2023-03-13T10:59:58;3.00;;;1.63;;
44139;SDS011;29803;51.048;4.686;2023-03-13T11:07:53;8.95;;;4.45;;
44139;SDS011;29803;51.048;4.686;2023-03-13T11:10:25;4.38;;;2.25;;
44139;SDS011;29803;51.048;4.686;2023-03-13T11:12:59;5.55;;;2.45;;
44139;SDS011;29803;51.048;4.686;2023-03-13T11:15:31;6.07;;;2.78;;
44139;SDS011;29803;51.048;4.686;2023-03-13T11:18:10;5.25;;;1.40;;
44139;SDS011;29803;51.048;4.686;2023-03-13T11:21:03;7.82;;;2.13;;
44139;SDS011;29803;51.048;4.686;2023-03-13T11:23:37;4.03;;;1.40;;
44139;SDS011;29803;51.048;4.686;2023-03-13T11:29:19;5.35;;;1.55;;
44139;SDS011;29803;51.048;4.686;2023-03-13T11:32:01;6.78;;;1.88;;
44139;SDS011;29803;51.048;4.686;2023-03-13T11:34:43;4.65;;;2.42;;
44139;SDS011;29803;51.048;4.686;2023-03-13T11:37:20;3.65;;;1.70;;
44139;SDS011;29803;51.048;4.686;2023-03-13T11:39:53;7.03;;;1.85;;
44139;SDS011;29803;51.048;4.686;2023-03-13T11:42:47;7.80;;;1.60;;
44139;SDS011;29803;51.048;4.686;2023-03-13T11:45:46;4.55;;;1.30;;
44139;SDS011;29803;51.048;4.686;2023-03-13T11:56:59;5.68;;;1.20;;
44139;SDS011;29803;51.048;4.686;2023-03-13T12:02:26;7.22;;;1.60;;
44139;SDS011;29803;51.048;4.686;2023-03-13T12:05:03;4.47;;;1.20;;
44139;SDS011;29803;51.048;4.686;2023-03-13T12:07:40;3.17;;;1.27;;
44139;SDS011;29803;51.048;4.686;2023-03-13T12:10:17;4.60;;;1.70;;
44139;SDS011;29803;51.048;4.686;2023-03-13T12:12:55;4.93;;;1.70;;
44139;SDS011;29803;51.048;4.686;2023-03-13T12:15:34;8.18;;;1.40;;
44139;SDS011;29803;51.048;4.686;2023-03-13T12:21:20;5.32;;;1.63;;
44139;SDS011;29803;51.048;4.686;2023-03-13T12:29:26;7.28;;;1.13;;
44139;SDS011;29803;51.048;4.686;2023-03-13T12:32:08;3.85;;;1.58;;
44139;SDS011;29803;51.048;4.686;2023-03-13T12:34:54;5.88;;;1.33;;
44139;SDS011;29803;51.048;4.686;2023-03-13T12:45:44;10.32;;;1.50;;
44139;SDS011;29803;51.048;4.686;2023-03-13T12:51:35;3.10;;;1.10;;
44139;SDS011;29803;51.048;4.686;2023-03-13T12:57:15;6.03;;;1.50;;
44139;SDS011;29803;51.048;4.686;2023-03-13T13:00:03;3.92;;;1.45;;
44139;SDS011;29803;51.048;4.686;2023-03-13T13:02:44;6.78;;;1.67;;
44139;SDS011;29803;51.048;4.686;2023-03-13T13:05:17;8.48;;;4.05;;
44139;SDS011;29803;51.048;4.686;2023-03-13T13:10:51;2.33;;;1.20;;
44139;SDS011;29803;51.048;4.686;2023-03-13T13:16:10;5.43;;;1.85;;
44139;SDS011;29803;51.048;4.686;2023-03-13T13:18:48;3.15;;;1.20;;
44139;SDS011;29803;51.048;4.686;2023-03-13T13:21:20;5.38;;;1.88;;
44139;SDS011;29803;51.048;4.686;2023-03-13T13:23:53;5.82;;;1.55;;
44139;SDS011;29803;51.048;4.686;2023-03-13T13:28:56;7.38;;;1.40;;
44139;SDS011;29803;51.048;4.686;2023-03-13T13:37:00;8.45;;;1.17;;
44139;SDS011;29803;51.048;4.686;2023-03-13T13:39:52;4.18;;;1.40;;
44139;SDS011;29803;51.048;4.686;2023-03-13T13:48:27;6.18;;;1.33;;
44139;SDS011;29803;51.048;4.686;2023-03-13T13:53:54;5.05;;;1.20;;
44139;SDS011;29803;51.048;4.686;2023-03-13T13:56:31;5.10;;;1.10;;
44139;SDS011;29803;51.048;4.686;2023-03-13T13:59:13;2.75;;;1.13;;
44139;SDS011;29803;51.048;4.686;2023-03-13T14:17:01;5.80;;;1.30;;
44139;SDS011;29803;51.048;4.686;2023-03-13T14:19:44;5.60;;;1.33;;
44139;SDS011;29803;51.048;4.686;2023-03-13T14:25:41;9.93;;;1.58;;
44139;SDS011;29803;51.048;4.686;2023-03-13T14:28:29;3.47;;;1.38;;
44139;SDS011;29803;51.048;4.686;2023-03-13T14:30:59;7.63;;;1.13;;
44139;SDS011;29803;51.048;4.686;2023-03-13T14:33:30;6.07;;;1.35;;
44139;SDS011;29803;51.048;4.686;2023-03-13T14:36:01;9.15;;;1.98;;
44139;SDS011;29803;51.048;4.686;2023-03-13T14:38:31;9.25;;;1.63;;
44139;SDS011;29803;51.048;4.686;2023-03-13T14:41:02;7.00;;;2.38;;
44139;SDS011;29803;51.048;4.686;2023-03-13T14:43:34;5.95;;;1.25;;
44139;SDS011;29803;51.048;4.686;2023-03-13T14:46:12;6.40;;;1.60;;
44139;SDS011;29803;51.048;4.686;2023-03-13T14:48:52;7.72;;;1.45;;
44139;SDS011;29803;51.048;4.686;2023-03-13T14:51:25;13.32;;;1.30;;
44139;SDS011;29803;51.048;4.686;2023-03-13T14:53:59;6.65;;;1.40;;
44139;SDS011;29803;51.048;4.686;2023-03-13T14:56:32;4.32;;;1.27;;
44139;SDS011;29803;51.048;4.686;2023-03-13T14:59:05;6.28;;;1.90;;
44139;SDS011;29803;51.048;4.686;2023-03-13T15:01:37;11.77;;;2.15;;
44139;SDS011;29803;51.048;4.686;2023-03-13T15:04:07;15.82;;;7.90;;
44139;SDS011;29803;51.048;4.686;2023-03-13T15:06:38;6.47;;;1.92;;
44139;SDS011;29803;51.048;4.686;2023-03-13T15:11:41;5.30;;;1.38;;
44139;SDS011;29803;51.048;4.686;2023-03-13T15:14:33;7.50;;;1.80;;
44139;SDS011;29803;51.048;4.686;2023-03-13T15:19:56;9.27;;;1.50;;
44139;SDS011;29803;51.048;4.686;2023-03-13T15:22:29;8.32;;;1.60;;
44139;SDS011;29803;51.048;4.686;2023-03-13T15:25:02;9.15;;;1.85;;
44139;SDS011;29803;51.048;4.686;2023-03-13T15:27:33;6.88;;;1.70;;
44139;SDS011;29803;51.048;4.686;2023-03-13T15:30:04;11.68;;;2.08;;
44139;SDS011;29803;51.048;4.686;2023-03-13T15:32:36;7.57;;;1.42;;
44139;SDS011;29803;51.048;4.686;2023-03-13T15:35:21;6.80;;;1.80;;
44139;SDS011;29803;51.048;4.686;2023-03-13T15:37:52;6.97;;;1.70;;
44139;SDS011;29803;51.048;4.686;2023-03-13T15:40:23;8.27;;;1.55;;
44139;SDS011;29803;51.048;4.686;2023-03-13T15:42:54;9.10;;;2.35;;
44139;SDS011;29803;51.048;4.686;2023-03-13T15:45:24;8.60;;;1.83;;
44139;SDS011;29803;51.048;4.686;2023-03-13T15:47:55;11.88;;;2.05;;
44139;SDS011;29803;51.048;4.686;2023-03-13T15:50:25;10.52;;;2.00;;
44139;SDS011;29803;51.048;4.686;2023-03-13T15:52:59;8.77;;;1.67;;
44139;SDS011;29803;51.048;4.686;2023-03-13T15:55:31;8.00;;;2.08;;
44139;SDS011;29803;51.048;4.686;2023-03-13T15:58:01;11.40;;;1.83;;
44139;SDS011;29803;51.048;4.686;2023-03-13T16:00:32;8.25;;;2.00;;
44139;SDS011;29803;51.048;4.686;2023-03-13T16:03:02;4.72;;;1.80;;
44139;SDS011;29803;51.048;4.686;2023-03-13T16:05:33;10.40;;;2.00;;
44139;SDS011;29803;51.048;4.686;2023-03-13T16:08:04;6.32;;;1.73;;
44139;SDS011;29803;51.048;4.686;2023-03-13T16:10:34;6.72;;;2.45;;
44139;SDS011;29803;51.048;4.686;2023-03-13T16:13:05;9.73;;;2.60;;
44139;SDS011;29803;51.048;4.686;2023-03-13T16:15:37;11.95;;;2.38;;
44139;SDS011;29803;51.048;4.686;2023-03-13T16:18:09;30.38;;;12.85;;
44139;SDS011;29803;51.048;4.686;2023-03-13T16:20:46;8.20;;;1.95;;
44139;SDS011;29803;51.048;4.686;2023-03-13T16:23:17;7.22;;;2.22;;
44139;SDS011;29803;51.048;4.686;2023-03-13T16:25:48;9.18;;;2.40;;
44139;SDS011;29803;51.048;4.686;2023-03-13T16:28:18;13.50;;;2.22;;
44139;SDS011;29803;51.048;4.686;2023-03-13T16:30:49;13.02;;;3.25;;
44139;SDS011;29803;51.048;4.686;2023-03-13T16:33:19;12.90;;;2.45;;
44139;SDS011;29803;51.048;4.686;2023-03-13T16:35:50;8.85;;;2.40;;
44139;SDS011;29803;51.048;4.686;2023-03-13T16:38:23;7.88;;;1.85;;
44139;SDS011;29803;51.048;4.686;2023-03-13T16:40:54;6.63;;;2.17;;
44139;SDS011;29803;51.048;4.686;2023-03-13T16:43:24;8.60;;;1.90;;
44139;SDS011;29803;51.048;4.686;2023-03-13T16:45:55;8.65;;;2.38;;
44139;SDS011;29803;51.048;4.686;2023-03-13T16:48:25;12.90;;;2.05;;
44139;SDS011;29803;51.048;4.686;2023-03-13T16:50:56;8.68;;;2.05;;
44139;SDS011;29803;51.048;4.686;2023-03-13T16:53:26;8.27;;;2.13;;
44139;SDS011;29803;51.048;4.686;2023-03-13T16:55:57;11.68;;;2.13;;
44139;SDS011;29803;51.048;4.686;2023-03-13T16:58:27;13.18;;;2.20;;
44139;SDS011;29803;51.048;4.686;2023-03-13T17:00:57;12.05;;;2.10;;
44139;SDS011;29803;51.048;4.686;2023-03-13T17:03:28;11.38;;;2.60;;
44139;SDS011;29803;51.048;4.686;2023-03-13T17:05:58;11.45;;;2.28;;
44139;SDS011;29803;51.048;4.686;2023-03-13T17:08:29;9.98;;;2.47;;
44139;SDS011;29803;51.048;4.686;2023-03-13T17:10:59;11.90;;;2.65;;
44139;SDS011;29803;51.048;4.686;2023-03-13T17:13:30;14.32;;;2.80;;
44139;SDS011;29803;51.048;4.686;2023-03-13T17:16:00;16.48;;;2.80;;
44139;SDS011;29803;51.048;4.686;2023-03-13T17:18:31;8.95;;;2.35;;